sensor_id;sensor_type;location;lat;lon;timestamp;pressure;altitude;pressure_sealevel;temperature;humidity
57024;BME280;42916;54.346;18.562;2023-05-09T00:00:31;101655.30;;;5.11;69.69
57024;BME280;42916;54.346;18.562;2023-05-09T00:03:11;101655.45;;;5.09;69.65
57024;BME280;42916;54.346;18.562;2023-05-09T00:05:41;101655.48;;;5.06;69.80
57024;BME280;42916;54.346;18.562;2023-05-09T00:08:07;101654.40;;;5.02;69.91
57024;BME280;42916;54.346;18.562;2023-05-09T00:10:34;101652.73;;;4.98;69.92
57024;BME280;42916;54.346;18.562;2023-05-09T00:13:01;101652.56;;;4.95;69.96
57024;BME280;42916;54.346;18.562;2023-05-09T00:15:28;101651.61;;;4.89;70.04
57024;BME280;42916;54.346;18.562;2023-05-09T00:17:55;101646.45;;;4.84;70.35
57024;BME280;42916;54.346;18.562;2023-05-09T00:20:22;101648.33;;;4.79;70.68
57024;BME280;42916;54.346;18.562;2023-05-09T00:22:49;101646.61;;;4.74;70.91
57024;BME280;42916;54.346;18.562;2023-05-09T00:25:16;101648.09;;;4.70;70.86
57024;BME280;42916;54.346;18.562;2023-05-09T00:27:43;101644.30;;;4.69;70.98
57024;BME280;42916;54.346;18.562;2023-05-09T00:30:09;101641.73;;;4.69;70.87
57024;BME280;42916;54.346;18.562;2023-05-09T00:32:36;101643.55;;;4.73;71.16
57024;BME280;42916;54.346;18.562;2023-05-09T00:35:03;101643.12;;;4.75;70.94
57024;BME280;42916;54.346;18.562;2023-05-09T00:37:30;101640.97;;;4.77;71.09
57024;BME280;42916;54.346;18.562;2023-05-09T00:39:57;101641.33;;;4.79;71.05
57024;BME280;42916;54.346;18.562;2023-05-09T00:42:24;101639.08;;;4.78;71.31
57024;BME280;42916;54.346;18.562;2023-05-09T00:44:50;101636.82;;;4.78;71.00
57024;BME280;42916;54.346;18.562;2023-05-09T00:47:17;101638.91;;;4.75;70.89
57024;BME280;42916;54.346;18.562;2023-05-09T00:49:44;101638.27;;;4.71;70.89
57024;BME280;42916;54.346;18.562;2023-05-09T00:52:11;101637.90;;;4.68;71.03
57024;BME280;42916;54.346;18.562;2023-05-09T00:54:38;101636.89;;;4.64;71.25
57024;BME280;42916;54.346;18.562;2023-05-09T00:57:05;101636.24;;;4.60;71.50
57024;BME280;42916;54.346;18.562;2023-05-09T00:59:32;101634.09;;;4.57;71.29
57024;BME280;42916;54.346;18.562;2023-05-09T01:01:58;101630.64;;;4.54;71.39
57024;BME280;42916;54.346;18.562;2023-05-09T01:04:25;101629.99;;;4.55;71.45
57024;BME280;42916;54.346;18.562;2023-05-09T01:09:46;101630.42;;;4.56;71.81
57024;BME280;42916;54.346;18.562;2023-05-09T01:12:29;101626.54;;;4.54;71.65
57024;BME280;42916;54.346;18.562;2023-05-09T01:15:23;101623.83;;;4.52;72.17
57024;BME280;42916;54.346;18.562;2023-05-09T01:17:57;101623.62;;;4.50;72.21
57024;BME280;42916;54.346;18.562;2023-05-09T01:20:35;101625.41;;;4.47;71.99
57024;BME280;42916;54.346;18.562;2023-05-09T01:26:02;101623.60;;;4.45;72.40
57024;BME280;42916;54.346;18.562;2023-05-09T01:31:21;101627.84;;;4.46;72.57
57024;BME280;42916;54.346;18.562;2023-05-09T01:33:53;101629.17;;;4.47;72.40
57024;BME280;42916;54.346;18.562;2023-05-09T01:36:23;101626.68;;;4.49;72.36
57024;BME280;42916;54.346;18.562;2023-05-09T01:38:55;101625.68;;;4.52;72.50
57024;BME280;42916;54.346;18.562;2023-05-09T01:41:24;101623.63;;;4.55;72.22
57024;BME280;42916;54.346;18.562;2023-05-09T01:43:56;101624.61;;;4.55;72.47
57024;BME280;42916;54.346;18.562;2023-05-09T01:46:25;101621.88;;;4.56;72.07
57024;BME280;42916;54.346;18.562;2023-05-09T01:48:53;101620.41;;;4.57;72.12
57024;BME280;42916;54.346;18.562;2023-05-09T01:51:21;101623.61;;;4.58;72.48
57024;BME280;42916;54.346;18.562;2023-05-09T01:53:50;101624.10;;;4.58;72.05
57024;BME280;42916;54.346;18.562;2023-05-09T01:56:19;101624.77;;;4.57;72.42
57024;BME280;42916;54.346;18.562;2023-05-09T01:58:49;101628.95;;;4.57;72.48
57024;BME280;42916;54.346;18.562;2023-05-09T02:01:17;101623.17;;;4.55;72.25
57024;BME280;42916;54.346;18.562;2023-05-09T02:03:47;101625.85;;;4.56;72.22
57024;BME280;42916;54.346;18.562;2023-05-09T02:06:17;101628.74;;;4.57;72.30
57024;BME280;42916;54.346;18.562;2023-05-09T02:08:47;101626.11;;;4.59;72.08
57024;BME280;42916;54.346;18.562;2023-05-09T02:11:15;101625.80;;;4.60;72.30
57024;BME280;42916;54.346;18.562;2023-05-09T02:13:42;101626.21;;;4.60;72.34
57024;BME280;42916;54.346;18.562;2023-05-09T02:16:10;101626.88;;;4.57;72.44
57024;BME280;42916;54.346;18.562;2023-05-09T02:18:37;101627.84;;;4.55;72.45
57024;BME280;42916;54.346;18.562;2023-05-09T02:21:05;101627.31;;;4.54;72.20
57024;BME280;42916;54.346;18.562;2023-05-09T02:23:31;101622.11;;;4.52;72.44
57024;BME280;42916;54.346;18.562;2023-05-09T02:25:58;101624.89;;;4.51;72.46
57024;BME280;42916;54.346;18.562;2023-05-09T02:28:26;101625.87;;;4.50;72.70
57024;BME280;42916;54.346;18.562;2023-05-09T02:30:54;101629.52;;;4.50;72.65
57024;BME280;42916;54.346;18.562;2023-05-09T02:33:23;101630.16;;;4.49;72.55
57024;BME280;42916;54.346;18.562;2023-05-09T02:35:51;101627.86;;;4.50;72.76
57024;BME280;42916;54.346;18.562;2023-05-09T02:38:18;101628.45;;;4.51;72.79
57024;BME280;42916;54.346;18.562;2023-05-09T02:40:46;101631.97;;;4.54;72.92
57024;BME280;42916;54.346;18.562;2023-05-09T02:43:13;101632.73;;;4.55;73.02
57024;BME280;42916;54.346;18.562;2023-05-09T02:45:40;101630.13;;;4.56;72.84
57024;BME280;42916;54.346;18.562;2023-05-09T02:48:07;101638.55;;;4.56;73.01
57024;BME280;42916;54.346;18.562;2023-05-09T02:50:34;101637.20;;;4.57;72.88
57024;BME280;42916;54.346;18.562;2023-05-09T02:53:04;101634.09;;;4.57;73.22
57024;BME280;42916;54.346;18.562;2023-05-09T02:55:31;101633.67;;;4.57;72.97
57024;BME280;42916;54.346;18.562;2023-05-09T02:57:58;101634.86;;;4.58;73.39
57024;BME280;42916;54.346;18.562;2023-05-09T03:00:28;101634.27;;;4.59;73.24
57024;BME280;42916;54.346;18.562;2023-05-09T03:02:55;101629.25;;;4.58;73.32
57024;BME280;42916;54.346;18.562;2023-05-09T03:05:22;101635.11;;;4.59;73.21
57024;BME280;42916;54.346;18.562;2023-05-09T03:07:48;101636.80;;;4.59;73.35
57024;BME280;42916;54.346;18.562;2023-05-09T03:10:17;101639.96;;;4.59;73.29
57024;BME280;42916;54.346;18.562;2023-05-09T03:12:44;101637.48;;;4.62;73.51
57024;BME280;42916;54.346;18.562;2023-05-09T03:15:11;101639.37;;;4.64;73.19
57024;BME280;42916;54.346;18.562;2023-05-09T03:17:39;101639.27;;;4.66;73.17
57024;BME280;42916;54.346;18.562;2023-05-09T03:20:07;101638.90;;;4.69;73.38
57024;BME280;42916;54.346;18.562;2023-05-09T03:22:35;101636.02;;;4.70;73.63
57024;BME280;42916;54.346;18.562;2023-05-09T03:25:03;101640.83;;;4.73;73.41
57024;BME280;42916;54.346;18.562;2023-05-09T03:27:32;101635.19;;;4.73;73.68
57024;BME280;42916;54.346;18.562;2023-05-09T03:29:59;101637.05;;;4.76;73.56
57024;BME280;42916;54.346;18.562;2023-05-09T03:32:26;101638.41;;;4.78;73.74
57024;BME280;42916;54.346;18.562;2023-05-09T03:34:52;101639.81;;;4.81;73.63
57024;BME280;42916;54.346;18.562;2023-05-09T03:37:20;101642.34;;;4.84;73.30
57024;BME280;42916;54.346;18.562;2023-05-09T03:39:47;101644.29;;;4.87;73.27
57024;BME280;42916;54.346;18.562;2023-05-09T03:42:14;101646.73;;;4.90;73.60
57024;BME280;42916;54.346;18.562;2023-05-09T03:44:41;101647.36;;;4.93;73.46
57024;BME280;42916;54.346;18.562;2023-05-09T03:47:08;101647.38;;;4.97;73.48
57024;BME280;42916;54.346;18.562;2023-05-09T03:49:38;101648.52;;;5.03;73.31
57024;BME280;42916;54.346;18.562;2023-05-09T03:52:05;101646.19;;;5.08;73.39
57024;BME280;42916;54.346;18.562;2023-05-09T03:54:32;101646.54;;;5.13;73.47
57024;BME280;42916;54.346;18.562;2023-05-09T03:57:01;101647.80;;;5.19;73.69
57024;BME280;42916;54.346;18.562;2023-05-09T03:59:28;101650.58;;;5.24;73.61
57024;BME280;42916;54.346;18.562;2023-05-09T04:01:55;101652.31;;;5.31;73.48
57024;BME280;42916;54.346;18.562;2023-05-09T04:04:24;101654.98;;;5.37;73.32
57024;BME280;42916;54.346;18.562;2023-05-09T04:06:51;101657.11;;;5.43;73.73
57024;BME280;42916;54.346;18.562;2023-05-09T04:09:18;101658.10;;;5.48;73.75
57024;BME280;42916;54.346;18.562;2023-05-09T04:11:45;101663.49;;;5.54;73.50
57024;BME280;42916;54.346;18.562;2023-05-09T04:14:13;101666.93;;;5.61;73.22
57024;BME280;42916;54.346;18.562;2023-05-09T04:16:41;101667.05;;;5.69;73.27
57024;BME280;42916;54.346;18.562;2023-05-09T04:19:09;101669.87;;;5.76;73.28
57024;BME280;42916;54.346;18.562;2023-05-09T04:21:36;101671.93;;;5.83;73.35
57024;BME280;42916;54.346;18.562;2023-05-09T04:24:03;101668.96;;;5.89;73.49
57024;BME280;42916;54.346;18.562;2023-05-09T04:26:45;101672.20;;;5.99;73.19
57024;BME280;42916;54.346;18.562;2023-05-09T04:29:15;101669.90;;;6.25;73.14
57024;BME280;42916;54.346;18.562;2023-05-09T04:31:43;101668.54;;;6.50;72.77
57024;BME280;42916;54.346;18.562;2023-05-09T04:34:10;101672.84;;;6.63;72.04
57024;BME280;42916;54.346;18.562;2023-05-09T04:36:38;101670.53;;;6.72;71.88
57024;BME280;42916;54.346;18.562;2023-05-09T04:39:05;101668.31;;;6.84;71.57
57024;BME280;42916;54.346;18.562;2023-05-09T04:41:32;101671.17;;;6.98;71.28
57024;BME280;42916;54.346;18.562;2023-05-09T04:43:59;101663.86;;;7.11;70.79
57024;BME280;42916;54.346;18.562;2023-05-09T04:46:26;101664.01;;;7.24;70.88
57024;BME280;42916;54.346;18.562;2023-05-09T04:48:53;101663.85;;;7.38;70.66
57024;BME280;42916;54.346;18.562;2023-05-09T04:51:20;101669.23;;;7.54;70.53
57024;BME280;42916;54.346;18.562;2023-05-09T04:53:47;101668.64;;;7.68;70.13
57024;BME280;42916;54.346;18.562;2023-05-09T04:56:15;101667.17;;;7.82;69.96
57024;BME280;42916;54.346;18.562;2023-05-09T04:58:42;101671.83;;;7.97;69.50
57024;BME280;42916;54.346;18.562;2023-05-09T05:01:10;101675.59;;;8.14;69.47
57024;BME280;42916;54.346;18.562;2023-05-09T05:03:38;101678.09;;;8.33;69.21
57024;BME280;42916;54.346;18.562;2023-05-09T05:06:06;101674.15;;;8.53;69.03
57024;BME280;42916;54.346;18.562;2023-05-09T05:08:32;101675.20;;;8.74;68.59
57024;BME280;42916;54.346;18.562;2023-05-09T05:10:59;101670.16;;;8.90;67.97
57024;BME280;42916;54.346;18.562;2023-05-09T05:13:26;101674.59;;;9.05;67.17
57024;BME280;42916;54.346;18.562;2023-05-09T05:15:55;101669.59;;;9.22;66.64
57024;BME280;42916;54.346;18.562;2023-05-09T05:18:23;101672.81;;;9.42;65.78
57024;BME280;42916;54.346;18.562;2023-05-09T05:20:50;101671.98;;;9.64;64.43
57024;BME280;42916;54.346;18.562;2023-05-09T05:23:18;101673.88;;;9.90;63.73
57024;BME280;42916;54.346;18.562;2023-05-09T05:25:45;101672.30;;;10.10;63.19
57024;BME280;42916;54.346;18.562;2023-05-09T05:28:12;101668.62;;;10.27;61.34
57024;BME280;42916;54.346;18.562;2023-05-09T05:30:40;101666.30;;;10.47;60.63
57024;BME280;42916;54.346;18.562;2023-05-09T05:33:07;101659.90;;;10.64;59.45
57024;BME280;42916;54.346;18.562;2023-05-09T05:35:33;101662.98;;;10.81;58.71
57024;BME280;42916;54.346;18.562;2023-05-09T05:38:02;101662.89;;;10.98;58.11
57024;BME280;42916;54.346;18.562;2023-05-09T05:40:29;101659.67;;;11.11;58.02
57024;BME280;42916;54.346;18.562;2023-05-09T05:42:56;101664.16;;;11.21;57.45
57024;BME280;42916;54.346;18.562;2023-05-09T05:45:23;101662.96;;;11.30;57.18
57024;BME280;42916;54.346;18.562;2023-05-09T05:47:52;101663.65;;;11.42;56.76
57024;BME280;42916;54.346;18.562;2023-05-09T05:50:20;101662.89;;;11.49;56.23
57024;BME280;42916;54.346;18.562;2023-05-09T05:52:47;101661.04;;;11.58;55.67
57024;BME280;42916;54.346;18.562;2023-05-09T05:55:15;101660.83;;;11.66;55.30
57024;BME280;42916;54.346;18.562;2023-05-09T05:57:42;101661.17;;;11.75;54.91
57024;BME280;42916;54.346;18.562;2023-05-09T06:00:10;101662.77;;;11.84;54.89
57024;BME280;42916;54.346;18.562;2023-05-09T06:02:43;101665.88;;;11.93;54.68
57024;BME280;42916;54.346;18.562;2023-05-09T06:05:13;101664.02;;;12.03;54.38
57024;BME280;42916;54.346;18.562;2023-05-09T06:07:40;101662.91;;;12.12;54.13
57024;BME280;42916;54.346;18.562;2023-05-09T06:10:09;101658.23;;;12.18;53.70
57024;BME280;42916;54.346;18.562;2023-05-09T06:12:36;101660.30;;;12.25;53.69
57024;BME280;42916;54.346;18.562;2023-05-09T06:15:04;101656.83;;;12.31;53.40
57024;BME280;42916;54.346;18.562;2023-05-09T06:17:33;101654.04;;;12.37;52.96
57024;BME280;42916;54.346;18.562;2023-05-09T06:20:01;101654.17;;;12.45;52.60
57024;BME280;42916;54.346;18.562;2023-05-09T06:22:28;101655.05;;;12.53;52.02
57024;BME280;42916;54.346;18.562;2023-05-09T06:24:55;101660.23;;;12.58;51.29
57024;BME280;42916;54.346;18.562;2023-05-09T06:27:21;101656.34;;;12.64;50.61
57024;BME280;42916;54.346;18.562;2023-05-09T06:29:48;101655.30;;;12.68;50.12
57024;BME280;42916;54.346;18.562;2023-05-09T06:32:15;101652.92;;;12.72;49.54
57024;BME280;42916;54.346;18.562;2023-05-09T06:34:44;101650.02;;;12.77;49.61
57024;BME280;42916;54.346;18.562;2023-05-09T06:37:10;101650.70;;;12.83;49.71
57024;BME280;42916;54.346;18.562;2023-05-09T06:39:37;101650.88;;;12.89;48.96
57024;BME280;42916;54.346;18.562;2023-05-09T06:42:04;101653.41;;;12.95;48.96
57024;BME280;42916;54.346;18.562;2023-05-09T06:44:32;101651.91;;;13.01;48.86
57024;BME280;42916;54.346;18.562;2023-05-09T06:46:58;101645.62;;;13.09;48.81
57024;BME280;42916;54.346;18.562;2023-05-09T06:49:25;101644.22;;;13.15;48.69
57024;BME280;42916;54.346;18.562;2023-05-09T06:51:55;101645.62;;;13.23;48.47
57024;BME280;42916;54.346;18.562;2023-05-09T06:54:21;101640.61;;;13.29;48.36
57024;BME280;42916;54.346;18.562;2023-05-09T06:56:48;101643.92;;;13.34;48.20
57024;BME280;42916;54.346;18.562;2023-05-09T06:59:15;101639.72;;;13.40;48.06
57024;BME280;42916;54.346;18.562;2023-05-09T07:01:42;101640.63;;;13.45;47.89
57024;BME280;42916;54.346;18.562;2023-05-09T07:04:09;101639.02;;;13.49;47.52
57024;BME280;42916;54.346;18.562;2023-05-09T07:06:36;101642.95;;;13.54;47.30
57024;BME280;42916;54.346;18.562;2023-05-09T07:09:03;101637.63;;;13.61;46.97
57024;BME280;42916;54.346;18.562;2023-05-09T07:11:34;101640.41;;;13.66;46.84
57024;BME280;42916;54.346;18.562;2023-05-09T07:14:02;101636.84;;;13.71;47.06
57024;BME280;42916;54.346;18.562;2023-05-09T07:16:29;101634.26;;;13.76;47.02
57024;BME280;42916;54.346;18.562;2023-05-09T07:18:55;101631.81;;;13.80;47.10
57024;BME280;42916;54.346;18.562;2023-05-09T07:21:22;101633.83;;;13.86;47.12
57024;BME280;42916;54.346;18.562;2023-05-09T07:23:49;101630.37;;;13.92;46.87
57024;BME280;42916;54.346;18.562;2023-05-09T07:26:16;101626.53;;;13.98;46.57
57024;BME280;42916;54.346;18.562;2023-05-09T07:28:42;101627.70;;;14.02;46.19
57024;BME280;42916;54.346;18.562;2023-05-09T07:31:09;101621.66;;;14.08;46.04
57024;BME280;42916;54.346;18.562;2023-05-09T07:33:36;101619.71;;;14.15;45.89
57024;BME280;42916;54.346;18.562;2023-05-09T07:36:02;101620.47;;;14.20;45.24
57024;BME280;42916;54.346;18.562;2023-05-09T07:38:29;101618.75;;;14.21;45.18
57024;BME280;42916;54.346;18.562;2023-05-09T07:40:56;101615.64;;;14.25;45.16
57024;BME280;42916;54.346;18.562;2023-05-09T07:43:23;101615.26;;;14.29;45.28
57024;BME280;42916;54.346;18.562;2023-05-09T07:45:49;101615.17;;;14.34;45.43
57024;BME280;42916;54.346;18.562;2023-05-09T07:48:16;101613.06;;;14.40;44.65
57024;BME280;42916;54.346;18.562;2023-05-09T07:50:43;101608.13;;;14.43;44.25
57024;BME280;42916;54.346;18.562;2023-05-09T07:53:10;101610.15;;;14.46;44.36
57024;BME280;42916;54.346;18.562;2023-05-09T07:55:36;101604.94;;;14.49;44.32
57024;BME280;42916;54.346;18.562;2023-05-09T07:58:03;101602.82;;;14.55;43.72
57024;BME280;42916;54.346;18.562;2023-05-09T08:00:30;101596.09;;;14.61;43.40
57024;BME280;42916;54.346;18.562;2023-05-09T08:02:57;101600.24;;;14.64;43.22
57024;BME280;42916;54.346;18.562;2023-05-09T08:05:24;101597.58;;;14.69;42.73
57024;BME280;42916;54.346;18.562;2023-05-09T08:07:50;101598.23;;;14.75;42.27
57024;BME280;42916;54.346;18.562;2023-05-09T08:10:17;101603.19;;;14.81;41.91
57024;BME280;42916;54.346;18.562;2023-05-09T08:12:44;101599.85;;;14.84;41.60
57024;BME280;42916;54.346;18.562;2023-05-09T08:15:10;101599.89;;;14.87;41.53
57024;BME280;42916;54.346;18.562;2023-05-09T08:17:37;101594.11;;;14.89;40.95
57024;BME280;42916;54.346;18.562;2023-05-09T08:20:04;101592.91;;;14.90;40.57
57024;BME280;42916;54.346;18.562;2023-05-09T08:22:31;101589.17;;;14.93;40.32
57024;BME280;42916;54.346;18.562;2023-05-09T08:24:58;101587.92;;;14.95;39.78
57024;BME280;42916;54.346;18.562;2023-05-09T08:27:24;101583.92;;;14.99;39.63
57024;BME280;42916;54.346;18.562;2023-05-09T08:29:51;101579.98;;;15.00;39.23
57024;BME280;42916;54.346;18.562;2023-05-09T08:32:18;101573.64;;;15.06;39.12
57024;BME280;42916;54.346;18.562;2023-05-09T08:34:45;101578.58;;;15.11;38.42
57024;BME280;42916;54.346;18.562;2023-05-09T08:37:12;101573.79;;;15.14;38.03
57024;BME280;42916;54.346;18.562;2023-05-09T08:39:39;101569.03;;;15.16;37.57
57024;BME280;42916;54.346;18.562;2023-05-09T08:42:07;101567.77;;;15.19;37.51
57024;BME280;42916;54.346;18.562;2023-05-09T08:44:34;101565.02;;;15.19;37.08
57024;BME280;42916;54.346;18.562;2023-05-09T08:47:02;101559.64;;;15.14;36.89
57024;BME280;42916;54.346;18.562;2023-05-09T08:49:29;101557.80;;;15.16;37.37
57024;BME280;42916;54.346;18.562;2023-05-09T08:51:56;101560.32;;;15.17;37.47
57024;BME280;42916;54.346;18.562;2023-05-09T08:54:24;101558.66;;;15.20;37.27
57024;BME280;42916;54.346;18.562;2023-05-09T08:56:51;101556.10;;;15.27;36.92
57024;BME280;42916;54.346;18.562;2023-05-09T08:59:17;101556.64;;;15.32;36.94
57024;BME280;42916;54.346;18.562;2023-05-09T09:01:45;101551.64;;;15.35;36.90
57024;BME280;42916;54.346;18.562;2023-05-09T09:04:11;101551.02;;;15.38;36.87
57024;BME280;42916;54.346;18.562;2023-05-09T09:06:39;101553.20;;;15.43;37.03
57024;BME280;42916;54.346;18.562;2023-05-09T09:09:07;101548.67;;;15.45;37.13
57024;BME280;42916;54.346;18.562;2023-05-09T09:11:36;101552.99;;;15.52;36.57
57024;BME280;42916;54.346;18.562;2023-05-09T09:14:18;101551.48;;;15.59;36.37
57024;BME280;42916;54.346;18.562;2023-05-09T09:16:50;101543.81;;;15.62;36.29
57024;BME280;42916;54.346;18.562;2023-05-09T09:19:18;101543.27;;;15.66;35.73
57024;BME280;42916;54.346;18.562;2023-05-09T09:21:47;101547.81;;;15.67;35.76
57024;BME280;42916;54.346;18.562;2023-05-09T09:24:20;101547.33;;;15.68;35.47
57024;BME280;42916;54.346;18.562;2023-05-09T09:26:49;101543.57;;;15.66;35.12
57024;BME280;42916;54.346;18.562;2023-05-09T09:29:17;101544.87;;;15.63;35.11
57024;BME280;42916;54.346;18.562;2023-05-09T09:31:45;101543.35;;;15.64;35.49
57024;BME280;42916;54.346;18.562;2023-05-09T09:34:19;101540.86;;;15.69;35.62
57024;BME280;42916;54.346;18.562;2023-05-09T09:36:46;101541.29;;;15.78;35.81
57024;BME280;42916;54.346;18.562;2023-05-09T09:39:14;101538.81;;;15.91;35.45
57024;BME280;42916;54.346;18.562;2023-05-09T09:41:41;101534.47;;;16.07;35.09
57024;BME280;42916;54.346;18.562;2023-05-09T09:44:15;101530.45;;;16.41;35.53
57024;BME280;42916;54.346;18.562;2023-05-09T09:46:54;101528.92;;;16.71;35.18
57024;BME280;42916;54.346;18.562;2023-05-09T09:49:22;101522.00;;;16.71;35.13
57024;BME280;42916;54.346;18.562;2023-05-09T09:51:54;101519.92;;;16.71;34.92
57024;BME280;42916;54.346;18.562;2023-05-09T09:54:22;101511.61;;;16.66;34.79
57024;BME280;42916;54.346;18.562;2023-05-09T09:56:52;101515.19;;;16.70;35.13
57024;BME280;42916;54.346;18.562;2023-05-09T09:59:22;101510.36;;;16.77;34.95
57024;BME280;42916;54.346;18.562;2023-05-09T10:01:54;101513.36;;;16.82;34.98
57024;BME280;42916;54.346;18.562;2023-05-09T10:04:22;101507.79;;;16.84;34.88
57024;BME280;42916;54.346;18.562;2023-05-09T10:06:53;101504.13;;;16.90;35.16
57024;BME280;42916;54.346;18.562;2023-05-09T10:09:21;101500.55;;;16.91;35.15
57024;BME280;42916;54.346;18.562;2023-05-09T10:11:50;101501.38;;;16.92;35.19
57024;BME280;42916;54.346;18.562;2023-05-09T10:14:24;101500.67;;;16.93;35.43
57024;BME280;42916;54.346;18.562;2023-05-09T10:16:55;101497.73;;;17.02;35.67
57024;BME280;42916;54.346;18.562;2023-05-09T10:19:25;101498.24;;;17.11;35.62
57024;BME280;42916;54.346;18.562;2023-05-09T10:21:57;101496.48;;;17.22;35.59
57024;BME280;42916;54.346;18.562;2023-05-09T10:24:33;101493.80;;;17.30;35.67
57024;BME280;42916;54.346;18.562;2023-05-09T10:27:03;101485.84;;;17.39;35.35
57024;BME280;42916;54.346;18.562;2023-05-09T10:29:36;101475.22;;;17.40;35.28
57024;BME280;42916;54.346;18.562;2023-05-09T10:32:31;101469.27;;;17.35;34.81
57024;BME280;42916;54.346;18.562;2023-05-09T10:35:05;101472.40;;;17.37;34.84
57024;BME280;42916;54.346;18.562;2023-05-09T10:37:32;101464.65;;;17.46;34.42
57024;BME280;42916;54.346;18.562;2023-05-09T10:40:02;101461.74;;;17.45;34.22
57024;BME280;42916;54.346;18.562;2023-05-09T10:42:30;101465.36;;;17.46;33.86
57024;BME280;42916;54.346;18.562;2023-05-09T10:44:57;101458.98;;;17.42;33.61
57024;BME280;42916;54.346;18.562;2023-05-09T10:47:27;101456.78;;;17.41;33.83
57024;BME280;42916;54.346;18.562;2023-05-09T10:49:55;101448.92;;;17.46;33.98
57024;BME280;42916;54.346;18.562;2023-05-09T10:52:22;101449.52;;;17.55;34.04
57024;BME280;42916;54.346;18.562;2023-05-09T10:55:00;101451.11;;;17.67;33.81
57024;BME280;42916;54.346;18.562;2023-05-09T10:57:29;101450.25;;;17.80;33.77
57024;BME280;42916;54.346;18.562;2023-05-09T10:59:56;101445.41;;;17.87;33.36
57024;BME280;42916;54.346;18.562;2023-05-09T11:02:23;101447.79;;;17.91;33.02
57024;BME280;42916;54.346;18.562;2023-05-09T11:05:18;101442.60;;;17.94;32.57
57024;BME280;42916;54.346;18.562;2023-05-09T11:07:45;101429.21;;;17.93;32.19
57024;BME280;42916;54.346;18.562;2023-05-09T11:10:16;101425.73;;;17.99;32.55
57024;BME280;42916;54.346;18.562;2023-05-09T11:12:58;101421.62;;;18.13;32.80
57024;BME280;42916;54.346;18.562;2023-05-09T11:15:25;101422.20;;;18.30;32.68
57024;BME280;42916;54.346;18.562;2023-05-09T11:18:08;101419.51;;;18.41;32.42
57024;BME280;42916;54.346;18.562;2023-05-09T11:20:41;101409.14;;;18.54;32.21
57024;BME280;42916;54.346;18.562;2023-05-09T11:23:09;101407.10;;;18.62;31.65
57024;BME280;42916;54.346;18.562;2023-05-09T11:25:40;101408.27;;;18.77;31.84
57024;BME280;42916;54.346;18.562;2023-05-09T11:28:07;101410.56;;;18.94;31.74
57024;BME280;42916;54.346;18.562;2023-05-09T11:30:41;101405.06;;;19.07;31.15
57024;BME280;42916;54.346;18.562;2023-05-09T11:33:22;101399.89;;;19.11;30.77
57024;BME280;42916;54.346;18.562;2023-05-09T11:36:18;101407.95;;;19.10;30.87
57024;BME280;42916;54.346;18.562;2023-05-09T11:38:46;101404.70;;;19.11;30.75
57024;BME280;42916;54.346;18.562;2023-05-09T11:41:13;101396.70;;;19.17;30.82
57024;BME280;42916;54.346;18.562;2023-05-09T11:43:41;101390.88;;;19.27;30.96
57024;BME280;42916;54.346;18.562;2023-05-09T11:46:08;101388.77;;;19.45;30.81
57024;BME280;42916;54.346;18.562;2023-05-09T11:48:39;101391.05;;;19.61;29.77
57024;BME280;42916;54.346;18.562;2023-05-09T11:51:15;101381.15;;;19.72;29.89
57024;BME280;42916;54.346;18.562;2023-05-09T11:53:52;101369.25;;;19.77;29.30
57024;BME280;42916;54.346;18.562;2023-05-09T11:56:19;101367.40;;;19.98;29.49
57024;BME280;42916;54.346;18.562;2023-05-09T11:58:50;101365.38;;;20.22;29.10
57024;BME280;42916;54.346;18.562;2023-05-09T12:01:18;101357.23;;;20.32;28.39
57024;BME280;42916;54.346;18.562;2023-05-09T12:03:45;101358.59;;;20.39;28.72
57024;BME280;42916;54.346;18.562;2023-05-09T12:06:18;101354.71;;;20.54;28.88
57024;BME280;42916;54.346;18.562;2023-05-09T12:08:45;101346.82;;;20.76;28.88
57024;BME280;42916;54.346;18.562;2023-05-09T12:11:13;101349.44;;;21.02;28.81
57024;BME280;42916;54.346;18.562;2023-05-09T12:13:47;101341.44;;;21.38;28.89
57024;BME280;42916;54.346;18.562;2023-05-09T12:16:15;101334.88;;;21.75;28.29
57024;BME280;42916;54.346;18.562;2023-05-09T12:18:44;101337.53;;;21.94;28.06
57024;BME280;42916;54.346;18.562;2023-05-09T12:21:11;101340.34;;;22.03;27.51
57024;BME280;42916;54.346;18.562;2023-05-09T12:23:38;101335.49;;;22.14;27.30
57024;BME280;42916;54.346;18.562;2023-05-09T12:26:04;101338.79;;;22.32;26.72
57024;BME280;42916;54.346;18.562;2023-05-09T12:28:33;101335.80;;;22.39;26.42
57024;BME280;42916;54.346;18.562;2023-05-09T12:31:00;101331.70;;;22.53;26.13
57024;BME280;42916;54.346;18.562;2023-05-09T12:33:29;101330.64;;;22.65;25.95
57024;BME280;42916;54.346;18.562;2023-05-09T12:36:10;101328.98;;;22.77;25.75
57024;BME280;42916;54.346;18.562;2023-05-09T12:38:38;101324.77;;;22.91;25.42
57024;BME280;42916;54.346;18.562;2023-05-09T12:41:06;101319.27;;;23.06;25.19
57024;BME280;42916;54.346;18.562;2023-05-09T12:43:37;101314.02;;;23.09;24.61
57024;BME280;42916;54.346;18.562;2023-05-09T12:46:07;101313.18;;;22.96;24.10
57024;BME280;42916;54.346;18.562;2023-05-09T12:48:36;101307.24;;;22.76;24.50
57024;BME280;42916;54.346;18.562;2023-05-09T12:51:04;101301.80;;;22.95;24.95
57024;BME280;42916;54.346;18.562;2023-05-09T12:53:36;101296.15;;;22.98;24.44
57024;BME280;42916;54.346;18.562;2023-05-09T12:56:11;101293.34;;;23.08;24.75
57024;BME280;42916;54.346;18.562;2023-05-09T12:58:39;101295.42;;;23.09;24.42